sensor_id;sensor_type;location;lat;lon;timestamp;pressure;altitude;pressure_sealevel;temperature;humidity
69796;BME280;57073;45.650;9.612;2023-03-04T00:01:16;99420.22;;;7.70;60.39
69796;BME280;57073;45.650;9.612;2023-03-04T00:06:17;99423.50;;;7.72;60.62
69796;BME280;57073;45.650;9.612;2023-03-04T00:11:17;99423.94;;;7.62;61.07
69796;BME280;57073;45.650;9.612;2023-03-04T00:16:17;99422.78;;;7.51;61.45
69796;BME280;57073;45.650;9.612;2023-03-04T00:21:18;99416.38;;;7.52;61.31
69796;BME280;57073;45.650;9.612;2023-03-04T00:26:18;99417.03;;;7.48;61.41
69796;BME280;57073;45.650;9.612;2023-03-04T00:31:19;99415.81;;;7.30;61.73
69796;BME280;57073;45.650;9.612;2023-03-04T00:36:19;99419.16;;;7.19;61.92
69796;BME280;57073;45.650;9.612;2023-03-04T00:41:19;99411.13;;;7.19;61.56
69796;BME280;57073;45.650;9.612;2023-03-04T00:46:20;99413.00;;;7.12;62.47
69796;BME280;57073;45.650;9.612;2023-03-04T00:51:20;99413.00;;;7.12;61.91
69796;BME280;57073;45.650;9.612;2023-03-04T00:56:20;99417.97;;;7.08;61.52
69796;BME280;57073;45.650;9.612;2023-03-04T01:01:21;99413.81;;;7.12;59.75
69796;BME280;57073;45.650;9.612;2023-03-04T01:06:21;99410.31;;;7.12;57.96
69796;BME280;57073;45.650;9.612;2023-03-04T01:11:22;99412.00;;;7.06;57.55
69796;BME280;57073;45.650;9.612;2023-03-04T01:16:22;99414.06;;;6.91;59.25
69796;BME280;57073;45.650;9.612;2023-03-04T01:21:22;99406.44;;;6.94;58.83
69796;BME280;57073;45.650;9.612;2023-03-04T01:26:23;99410.41;;;6.72;59.94
69796;BME280;57073;45.650;9.612;2023-03-04T01:31:23;99406.06;;;6.77;60.00
69796;BME280;57073;45.650;9.612;2023-03-04T01:36:24;99401.75;;;6.63;60.15
69796;BME280;57073;45.650;9.612;2023-03-04T01:41:25;99405.91;;;6.59;59.81
69796;BME280;57073;45.650;9.612;2023-03-04T01:46:26;99414.34;;;6.63;59.28
69796;BME280;57073;45.650;9.612;2023-03-04T01:51:26;99410.63;;;6.64;59.73
69796;BME280;57073;45.650;9.612;2023-03-04T01:56:35;99402.41;;;6.25;61.27
69796;BME280;57073;45.650;9.612;2023-03-04T02:01:37;99398.50;;;6.41;60.87
69796;BME280;57073;45.650;9.612;2023-03-04T02:06:39;99393.72;;;6.50;60.45
69796;BME280;57073;45.650;9.612;2023-03-04T02:11:40;99385.06;;;6.54;58.86
69796;BME280;57073;45.650;9.612;2023-03-04T02:16:41;99373.53;;;6.40;59.86
69796;BME280;57073;45.650;9.612;2023-03-04T02:21:42;99378.06;;;6.33;60.34
69796;BME280;57073;45.650;9.612;2023-03-04T02:26:43;99373.94;;;6.44;59.36
69796;BME280;57073;45.650;9.612;2023-03-04T02:31:48;99371.69;;;6.28;59.21
69796;BME280;57073;45.650;9.612;2023-03-04T02:36:51;99364.69;;;6.13;60.46
69796;BME280;57073;45.650;9.612;2023-03-04T02:41:53;99366.56;;;6.13;60.13
69796;BME280;57073;45.650;9.612;2023-03-04T02:46:54;99363.88;;;5.93;60.94
69796;BME280;57073;45.650;9.612;2023-03-04T02:57:06;99358.28;;;5.68;60.38
69796;BME280;57073;45.650;9.612;2023-03-04T03:02:07;99363.22;;;5.71;61.41
69796;BME280;57073;45.650;9.612;2023-03-04T03:07:08;99363.63;;;5.68;61.54
69796;BME280;57073;45.650;9.612;2023-03-04T03:12:08;99364.47;;;5.75;60.64
69796;BME280;57073;45.650;9.612;2023-03-04T03:17:08;99360.16;;;5.74;60.31
69796;BME280;57073;45.650;9.612;2023-03-04T03:22:09;99359.06;;;5.48;61.92
69796;BME280;57073;45.650;9.612;2023-03-04T03:27:09;99356.19;;;5.56;61.28
69796;BME280;57073;45.650;9.612;2023-03-04T03:32:10;99354.97;;;5.66;60.68
69796;BME280;57073;45.650;9.612;2023-03-04T03:37:10;99349.63;;;5.52;60.37
69796;BME280;57073;45.650;9.612;2023-03-04T03:42:11;99345.69;;;5.55;61.24
69796;BME280;57073;45.650;9.612;2023-03-04T03:47:11;99354.13;;;5.45;61.35
69796;BME280;57073;45.650;9.612;2023-03-04T03:52:12;99352.41;;;5.31;62.05
69796;BME280;57073;45.650;9.612;2023-03-04T03:57:13;99345.00;;;5.33;61.67
69796;BME280;57073;45.650;9.612;2023-03-04T04:02:13;99356.50;;;5.33;60.90
69796;BME280;57073;45.650;9.612;2023-03-04T04:07:14;99348.97;;;5.43;60.63
69796;BME280;57073;45.650;9.612;2023-03-04T04:12:17;99351.66;;;5.43;60.59
69796;BME280;57073;45.650;9.612;2023-03-04T04:17:18;99349.59;;;5.46;60.31
69796;BME280;57073;45.650;9.612;2023-03-04T04:22:19;99353.53;;;5.08;62.13
69796;BME280;57073;45.650;9.612;2023-03-04T04:27:20;99353.88;;;4.92;62.80
69796;BME280;57073;45.650;9.612;2023-03-04T04:32:20;99351.78;;;4.80;62.46
69796;BME280;57073;45.650;9.612;2023-03-04T04:37:20;99350.13;;;4.79;62.89
69796;BME280;57073;45.650;9.612;2023-03-04T04:42:21;99355.44;;;4.73;63.06
69796;BME280;57073;45.650;9.612;2023-03-04T04:47:21;99354.22;;;4.75;63.33
69796;BME280;57073;45.650;9.612;2023-03-04T04:52:21;99349.19;;;4.59;63.43
69796;BME280;57073;45.650;9.612;2023-03-04T04:57:22;99350.13;;;4.44;63.71
69796;BME280;57073;45.650;9.612;2023-03-04T05:02:22;99355.22;;;4.39;63.87
69796;BME280;57073;45.650;9.612;2023-03-04T05:07:23;99354.34;;;4.32;62.93
69796;BME280;57073;45.650;9.612;2023-03-04T05:12:23;99341.59;;;4.27;62.61
69796;BME280;57073;45.650;9.612;2023-03-04T05:17:23;99347.47;;;4.16;63.04
69796;BME280;57073;45.650;9.612;2023-03-04T05:22:24;99349.91;;;4.18;63.86
69796;BME280;57073;45.650;9.612;2023-03-04T05:27:24;99337.06;;;4.28;63.61
69796;BME280;57073;45.650;9.612;2023-03-04T05:32:25;99345.31;;;4.33;62.62
69796;BME280;57073;45.650;9.612;2023-03-04T05:37:25;99341.13;;;4.52;62.31
69796;BME280;57073;45.650;9.612;2023-03-04T05:42:26;99349.25;;;4.65;62.78
69796;BME280;57073;45.650;9.612;2023-03-04T05:47:26;99347.50;;;4.51;61.86
69796;BME280;57073;45.650;9.612;2023-03-04T05:52:26;99355.63;;;4.36;64.07
69796;BME280;57073;45.650;9.612;2023-03-04T05:57:27;99357.81;;;4.26;64.06
69796;BME280;57073;45.650;9.612;2023-03-04T06:02:27;99361.00;;;4.43;62.66
69796;BME280;57073;45.650;9.612;2023-03-04T06:07:27;99361.69;;;4.23;62.94
69796;BME280;57073;45.650;9.612;2023-03-04T06:12:28;99369.34;;;4.33;63.54
69796;BME280;57073;45.650;9.612;2023-03-04T06:17:29;99362.91;;;4.56;63.13
69796;BME280;57073;45.650;9.612;2023-03-04T06:22:29;99362.78;;;4.64;62.74
69796;BME280;57073;45.650;9.612;2023-03-04T06:27:30;99371.72;;;4.78;62.50
69796;BME280;57073;45.650;9.612;2023-03-04T06:32:30;99370.09;;;4.90;61.54
69796;BME280;57073;45.650;9.612;2023-03-04T06:37:30;99382.31;;;5.06;61.55
69796;BME280;57073;45.650;9.612;2023-03-04T06:42:31;99391.81;;;5.15;61.17
69796;BME280;57073;45.650;9.612;2023-03-04T06:47:31;99387.72;;;5.19;61.61
69796;BME280;57073;45.650;9.612;2023-03-04T06:52:32;99388.41;;;5.35;60.78
69796;BME280;57073;45.650;9.612;2023-03-04T06:57:32;99391.47;;;5.25;61.50
69796;BME280;57073;45.650;9.612;2023-03-04T07:02:32;99387.91;;;5.59;60.33
69796;BME280;57073;45.650;9.612;2023-03-04T07:07:33;99398.66;;;5.86;60.03
69796;BME280;57073;45.650;9.612;2023-03-04T07:12:33;99407.72;;;5.98;59.45
69796;BME280;57073;45.650;9.612;2023-03-04T07:17:33;99407.13;;;6.36;58.46
69796;BME280;57073;45.650;9.612;2023-03-04T07:22:34;99415.56;;;6.60;58.14
69796;BME280;57073;45.650;9.612;2023-03-04T07:27:34;99403.53;;;7.03;57.08
69796;BME280;57073;45.650;9.612;2023-03-04T07:32:34;99409.25;;;7.26;56.63
69796;BME280;57073;45.650;9.612;2023-03-04T07:37:35;99415.06;;;7.68;55.53
69796;BME280;57073;45.650;9.612;2023-03-04T07:42:35;99415.97;;;7.87;55.48
69796;BME280;57073;45.650;9.612;2023-03-04T07:47:37;99413.31;;;8.12;54.75
69796;BME280;57073;45.650;9.612;2023-03-04T07:52:42;99413.16;;;8.32;53.74
69796;BME280;57073;45.650;9.612;2023-03-04T07:57:45;99411.03;;;8.41;52.04
69796;BME280;57073;45.650;9.612;2023-03-04T08:02:45;99408.34;;;8.85;52.51
69796;BME280;57073;45.650;9.612;2023-03-04T08:07:46;99408.56;;;9.08;52.56
69796;BME280;57073;45.650;9.612;2023-03-04T08:12:46;99413.78;;;9.03;52.64
69796;BME280;57073;45.650;9.612;2023-03-04T08:17:47;99412.41;;;9.50;51.79
69796;BME280;57073;45.650;9.612;2023-03-04T08:22:47;99401.66;;;9.80;50.40
69796;BME280;57073;45.650;9.612;2023-03-04T08:27:48;99403.06;;;10.24;51.78
69796;BME280;57073;45.650;9.612;2023-03-04T08:32:48;99396.94;;;10.17;49.56
69796;BME280;57073;45.650;9.612;2023-03-04T08:37:48;99396.78;;;10.78;49.27
69796;BME280;57073;45.650;9.612;2023-03-04T08:42:49;99396.31;;;10.93;48.77
69796;BME280;57073;45.650;9.612;2023-03-04T08:47:49;99391.78;;;11.22;48.54
69796;BME280;57073;45.650;9.612;2023-03-04T08:52:50;99394.03;;;11.25;47.12
69796;BME280;57073;45.650;9.612;2023-03-04T08:57:50;99392.03;;;11.21;48.31
69796;BME280;57073;45.650;9.612;2023-03-04T09:02:51;99386.72;;;11.66;47.37
69796;BME280;57073;45.650;9.612;2023-03-04T09:07:51;99388.53;;;11.61;47.41
69796;BME280;57073;45.650;9.612;2023-03-04T09:12:51;99378.66;;;12.12;49.03
69796;BME280;57073;45.650;9.612;2023-03-04T09:17:52;99382.38;;;12.28;47.90
69796;BME280;57073;45.650;9.612;2023-03-04T09:22:52;99375.09;;;11.94;47.54
69796;BME280;57073;45.650;9.612;2023-03-04T09:27:52;99383.72;;;12.08;47.40
69796;BME280;57073;45.650;9.612;2023-03-04T09:32:53;99372.38;;;11.78;46.33
69796;BME280;57073;45.650;9.612;2023-03-04T09:37:53;99372.41;;;11.66;48.44
69796;BME280;57073;45.650;9.612;2023-03-04T09:43:01;99370.69;;;11.48;48.85
69796;BME280;57073;45.650;9.612;2023-03-04T09:48:05;99369.50;;;11.27;48.47
69796;BME280;57073;45.650;9.612;2023-03-04T09:53:19;99369.84;;;11.59;48.75
69796;BME280;57073;45.650;9.612;2023-03-04T09:58:38;99362.50;;;10.90;49.70
69796;BME280;57073;45.650;9.612;2023-03-04T10:09:01;99351.69;;;11.43;50.07
69796;BME280;57073;45.650;9.612;2023-03-04T10:19:31;99341.66;;;11.26;49.20
69796;BME280;57073;45.650;9.612;2023-03-04T10:24:35;99345.59;;;11.07;50.01
69796;BME280;57073;45.650;9.612;2023-03-04T10:29:35;99335.19;;;10.98;50.55
69796;BME280;57073;45.650;9.612;2023-03-04T10:34:36;99328.81;;;11.05;50.24
69796;BME280;57073;45.650;9.612;2023-03-04T10:39:39;99321.75;;;11.15;49.94
69796;BME280;57073;45.650;9.612;2023-03-04T10:44:43;99315.16;;;11.23;50.29
69796;BME280;57073;45.650;9.612;2023-03-04T10:49:55;99323.47;;;10.93;50.42
69796;BME280;57073;45.650;9.612;2023-03-04T10:54:58;99307.88;;;10.83;50.36
69796;BME280;57073;45.650;9.612;2023-03-04T11:00:03;99305.06;;;10.90;51.13
69796;BME280;57073;45.650;9.612;2023-03-04T11:05:21;99304.84;;;11.20;49.81
69796;BME280;57073;45.650;9.612;2023-03-04T11:15:54;99287.13;;;11.41;49.59
69796;BME280;57073;45.650;9.612;2023-03-04T11:20:55;99290.03;;;11.51;49.93
69796;BME280;57073;45.650;9.612;2023-03-04T11:26:01;99277.34;;;11.52;48.87
69796;BME280;57073;45.650;9.612;2023-03-04T11:31:07;99277.50;;;11.45;48.33
69796;BME280;57073;45.650;9.612;2023-03-04T11:36:37;99273.25;;;11.49;48.72
69796;BME280;57073;45.650;9.612;2023-03-04T11:41:48;99254.91;;;11.34;48.11
69796;BME280;57073;45.650;9.612;2023-03-04T11:47:00;99256.91;;;11.56;48.05
69796;BME280;57073;45.650;9.612;2023-03-04T11:57:36;99233.03;;;11.82;48.30
69796;BME280;57073;45.650;9.612;2023-03-04T12:13:44;99199.69;;;11.93;48.25
69796;BME280;57073;45.650;9.612;2023-03-04T12:29:43;99174.31;;;11.94;48.31
69796;BME280;57073;45.650;9.612;2023-03-04T12:45:19;99139.94;;;12.11;48.13
69796;BME280;57073;45.650;9.612;2023-03-04T12:55:54;99129.50;;;11.98;48.12
69796;BME280;57073;45.650;9.612;2023-03-04T13:01:15;99122.47;;;11.97;46.38
69796;BME280;57073;45.650;9.612;2023-03-04T13:16:57;99103.38;;;12.04;47.39
69796;BME280;57073;45.650;9.612;2023-03-04T13:22:00;99106.63;;;12.06;48.15
69796;BME280;57073;45.650;9.612;2023-03-04T13:27:01;99096.88;;;11.83;48.66
69796;BME280;57073;45.650;9.612;2023-03-04T13:32:09;99091.19;;;12.01;48.65
69796;BME280;57073;45.650;9.612;2023-03-04T13:37:33;99070.81;;;12.16;48.36
69796;BME280;57073;45.650;9.612;2023-03-04T13:42:40;99073.53;;;12.16;47.55
69796;BME280;57073;45.650;9.612;2023-03-04T13:47:43;99075.22;;;12.22;47.64
69796;BME280;57073;45.650;9.612;2023-03-04T13:52:44;99068.13;;;12.16;47.55
69796;BME280;57073;45.650;9.612;2023-03-04T13:57:49;99067.34;;;12.20;47.58
69796;BME280;57073;45.650;9.612;2023-03-04T14:02:50;99059.00;;;12.22;47.52
69796;BME280;57073;45.650;9.612;2023-03-04T14:07:50;99060.94;;;12.04;47.29
69796;BME280;57073;45.650;9.612;2023-03-04T14:12:54;99049.56;;;12.02;47.74
69796;BME280;57073;45.650;9.612;2023-03-04T14:17:57;99046.50;;;12.16;47.63
69796;BME280;57073;45.650;9.612;2023-03-04T14:23:00;99041.59;;;12.12;47.87
69796;BME280;57073;45.650;9.612;2023-03-04T14:28:19;99034.78;;;12.10;47.46
69796;BME280;57073;45.650;9.612;2023-03-04T14:33:23;99029.66;;;12.08;47.20
69796;BME280;57073;45.650;9.612;2023-03-04T14:38:34;99022.53;;;12.02;47.72
69796;BME280;57073;45.650;9.612;2023-03-04T14:43:49;99016.78;;;11.93;46.72
69796;BME280;57073;45.650;9.612;2023-03-04T14:48:52;99009.31;;;11.79;46.93
69796;BME280;57073;45.650;9.612;2023-03-04T14:53:54;98997.59;;;11.95;47.77
69796;BME280;57073;45.650;9.612;2023-03-04T14:58:57;98986.41;;;11.86;46.85
69796;BME280;57073;45.650;9.612;2023-03-04T15:04:08;98984.88;;;11.90;47.33
69796;BME280;57073;45.650;9.612;2023-03-04T15:09:24;98976.16;;;11.83;47.58
69796;BME280;57073;45.650;9.612;2023-03-04T15:14:44;98977.13;;;11.77;47.69
69796;BME280;57073;45.650;9.612;2023-03-04T15:19:57;98972.03;;;11.81;48.04
69796;BME280;57073;45.650;9.612;2023-03-04T15:24:57;98964.50;;;11.83;47.23
69796;BME280;57073;45.650;9.612;2023-03-04T15:29:58;98964.28;;;11.62;47.32
69796;BME280;57073;45.650;9.612;2023-03-04T15:35:00;98966.53;;;11.70;47.42
69796;BME280;57073;45.650;9.612;2023-03-04T15:40:01;98961.81;;;11.61;47.32
69796;BME280;57073;45.650;9.612;2023-03-04T15:45:21;98959.44;;;11.64;47.55
69796;BME280;57073;45.650;9.612;2023-03-04T15:50:26;98961.94;;;11.71;47.62
69796;BME280;57073;45.650;9.612;2023-03-04T15:55:28;98958.38;;;11.65;47.54
69796;BME280;57073;45.650;9.612;2023-03-04T16:00:29;98958.69;;;11.69;48.03
69796;BME280;57073;45.650;9.612;2023-03-04T16:05:35;98956.66;;;11.59;47.98
69796;BME280;57073;45.650;9.612;2023-03-04T16:10:36;98949.66;;;11.58;48.05
69796;BME280;57073;45.650;9.612;2023-03-04T16:15:37;98951.88;;;11.44;47.94
69796;BME280;57073;45.650;9.612;2023-03-04T16:20:39;98954.06;;;11.47;47.87
69796;BME280;57073;45.650;9.612;2023-03-04T16:25:43;98945.44;;;11.28;48.31
69796;BME280;57073;45.650;9.612;2023-03-04T16:30:44;98946.84;;;11.31;48.52
69796;BME280;57073;45.650;9.612;2023-03-04T16:35:45;98944.94;;;11.09;48.55
69796;BME280;57073;45.650;9.612;2023-03-04T16:40:45;98943.50;;;10.85;49.20
69796;BME280;57073;45.650;9.612;2023-03-04T16:45:47;98940.22;;;10.99;49.03
69796;BME280;57073;45.650;9.612;2023-03-04T16:50:47;98934.84;;;10.99;48.87
69796;BME280;57073;45.650;9.612;2023-03-04T16:55:48;98933.34;;;10.92;49.09
69796;BME280;57073;45.650;9.612;2023-03-04T17:00:48;98939.00;;;10.90;49.26
69796;BME280;57073;45.650;9.612;2023-03-04T17:05:48;98926.66;;;10.77;48.61
69796;BME280;57073;45.650;9.612;2023-03-04T17:10:49;98935.31;;;10.79;48.88
69796;BME280;57073;45.650;9.612;2023-03-04T17:15:49;98937.44;;;10.77;48.82
69796;BME280;57073;45.650;9.612;2023-03-04T17:20:50;98946.38;;;10.61;51.08
69796;BME280;57073;45.650;9.612;2023-03-04T17:25:55;98943.09;;;10.59;49.94
69796;BME280;57073;45.650;9.612;2023-03-04T17:30:56;98947.78;;;10.64;50.03
69796;BME280;57073;45.650;9.612;2023-03-04T17:35:56;98941.72;;;10.56;50.72
69796;BME280;57073;45.650;9.612;2023-03-04T17:41:09;98948.25;;;10.60;50.97
69796;BME280;57073;45.650;9.612;2023-03-04T17:46:13;98965.44;;;10.54;50.78
69796;BME280;57073;45.650;9.612;2023-03-04T17:51:14;98966.94;;;10.33;51.97
69796;BME280;57073;45.650;9.612;2023-03-04T17:56:14;98972.91;;;10.35;52.43
69796;BME280;57073;45.650;9.612;2023-03-04T18:01:19;98971.28;;;10.34;52.18
69796;BME280;57073;45.650;9.612;2023-03-04T18:06:20;98971.88;;;10.24;51.70
69796;BME280;57073;45.650;9.612;2023-03-04T18:11:23;98960.09;;;10.14;52.00
69796;BME280;57073;45.650;9.612;2023-03-04T18:16:24;98964.00;;;10.06;52.34
69796;BME280;57073;45.650;9.612;2023-03-04T18:21:27;98958.94;;;9.93;52.46
69796;BME280;57073;45.650;9.612;2023-03-04T18:26:28;98962.00;;;9.84;53.23
69796;BME280;57073;45.650;9.612;2023-03-04T18:31:28;98952.44;;;9.77;53.61
69796;BME280;57073;45.650;9.612;2023-03-04T18:36:32;98953.41;;;9.59;53.24
69796;BME280;57073;45.650;9.612;2023-03-04T18:41:32;98959.25;;;9.56;54.14
69796;BME280;57073;45.650;9.612;2023-03-04T18:46:52;98959.53;;;9.42;54.58
69796;BME280;57073;45.650;9.612;2023-03-04T18:51:54;98954.75;;;9.44;54.36
69796;BME280;57073;45.650;9.612;2023-03-04T18:57:01;98959.19;;;9.39;54.42
69796;BME280;57073;45.650;9.612;2023-03-04T19:02:09;98964.94;;;9.31;53.93
69796;BME280;57073;45.650;9.612;2023-03-04T19:07:11;98966.13;;;9.23;54.87
69796;BME280;57073;45.650;9.612;2023-03-04T19:12:11;98966.25;;;9.28;54.69
69796;BME280;57073;45.650;9.612;2023-03-04T19:17:12;98971.03;;;9.26;54.84
69796;BME280;57073;45.650;9.612;2023-03-04T19:22:13;98966.97;;;9.12;55.35
69796;BME280;57073;45.650;9.612;2023-03-04T19:27:13;98972.34;;;9.12;54.99
69796;BME280;57073;45.650;9.612;2023-03-04T19:32:14;98974.44;;;9.10;55.32
69796;BME280;57073;45.650;9.612;2023-03-04T19:37:16;98978.53;;;9.00;55.19
69796;BME280;57073;45.650;9.612;2023-03-04T19:42:16;98978.06;;;9.03;56.06
69796;BME280;57073;45.650;9.612;2023-03-04T19:47:17;98971.63;;;8.93;55.99
69796;BME280;57073;45.650;9.612;2023-03-04T19:52:18;98978.50;;;8.77;56.86
69796;BME280;57073;45.650;9.612;2023-03-04T19:57:18;98966.78;;;8.59;56.81
69796;BME280;57073;45.650;9.612;2023-03-04T20:02:18;98988.16;;;8.42;58.17
69796;BME280;57073;45.650;9.612;2023-03-04T20:07:19;98979.31;;;8.23;58.82
69796;BME280;57073;45.650;9.612;2023-03-04T20:12:19;98987.38;;;8.23;58.37
69796;BME280;57073;45.650;9.612;2023-03-04T20:17:19;98977.66;;;8.10;58.51
69796;BME280;57073;45.650;9.612;2023-03-04T20:22:20;98977.16;;;8.02;59.01
69796;BME280;57073;45.650;9.612;2023-03-04T20:27:20;98989.84;;;7.94;58.90
69796;BME280;57073;45.650;9.612;2023-03-04T20:32:21;98988.97;;;7.82;59.14
69796;BME280;57073;45.650;9.612;2023-03-04T20:37:22;98990.78;;;7.70;59.04
69796;BME280;57073;45.650;9.612;2023-03-04T20:42:23;98995.56;;;7.68;59.17
69796;BME280;57073;45.650;9.612;2023-03-04T20:47:23;98996.88;;;7.59;59.16
69796;BME280;57073;45.650;9.612;2023-03-04T20:52:24;98997.13;;;7.57;59.46
69796;BME280;57073;45.650;9.612;2023-03-04T20:57:24;98984.69;;;7.44;60.34
69796;BME280;57073;45.650;9.612;2023-03-04T21:02:25;98981.31;;;7.49;59.59
69796;BME280;57073;45.650;9.612;2023-03-04T21:07:26;98993.91;;;7.30;59.85
69796;BME280;57073;45.650;9.612;2023-03-04T21:12:26;98993.28;;;7.28;60.05
69796;BME280;57073;45.650;9.612;2023-03-04T21:17:26;98997.59;;;7.29;60.08
69796;BME280;57073;45.650;9.612;2023-03-04T21:22:27;98995.38;;;7.26;60.43
69796;BME280;57073;45.650;9.612;2023-03-04T21:27:27;98996.53;;;7.11;59.98
69796;BME280;57073;45.650;9.612;2023-03-04T21:32:28;98993.59;;;7.20;59.85
69796;BME280;57073;45.650;9.612;2023-03-04T21:37:28;98983.44;;;7.22;59.70
69796;BME280;57073;45.650;9.612;2023-03-04T21:42:28;98985.53;;;7.20;58.95
69796;BME280;57073;45.650;9.612;2023-03-04T21:47:29;98983.66;;;7.20;58.84
69796;BME280;57073;45.650;9.612;2023-03-04T21:52:29;98984.41;;;7.27;59.60
69796;BME280;57073;45.650;9.612;2023-03-04T21:57:30;98984.03;;;7.24;59.23
69796;BME280;57073;45.650;9.612;2023-03-04T22:02:32;98991.06;;;7.25;58.86
69796;BME280;57073;45.650;9.612;2023-03-04T22:07:32;98995.38;;;7.26;58.83
69796;BME280;57073;45.650;9.612;2023-03-04T22:12:33;98994.31;;;7.08;59.37
69796;BME280;57073;45.650;9.612;2023-03-04T22:17:33;98987.31;;;7.07;58.93
69796;BME280;57073;45.650;9.612;2023-03-04T22:22:34;98984.34;;;7.15;59.11
69796;BME280;57073;45.650;9.612;2023-03-04T22:27:34;98982.47;;;7.16;59.52
69796;BME280;57073;45.650;9.612;2023-03-04T22:32:35;98980.91;;;7.08;59.38
69796;BME280;57073;45.650;9.612;2023-03-04T22:37:35;98990.78;;;7.08;59.84
69796;BME280;57073;45.650;9.612;2023-03-04T22:42:35;98982.25;;;6.99;59.69
69796;BME280;57073;45.650;9.612;2023-03-04T22:47:36;98980.88;;;6.90;60.09
69796;BME280;57073;45.650;9.612;2023-03-04T22:52:36;98989.91;;;6.70;60.30
69796;BME280;57073;45.650;9.612;2023-03-04T22:57:37;98991.63;;;6.65;60.50
69796;BME280;57073;45.650;9.612;2023-03-04T23:02:38;98994.97;;;6.53;61.46
69796;BME280;57073;45.650;9.612;2023-03-04T23:07:39;98988.63;;;6.48;61.33
69796;BME280;57073;45.650;9.612;2023-03-04T23:12:40;98994.28;;;6.39;60.85
69796;BME280;57073;45.650;9.612;2023-03-04T23:17:40;98990.53;;;6.40;61.47
69796;BME280;57073;45.650;9.612;2023-03-04T23:22:41;98994.97;;;6.28;61.80
69796;BME280;57073;45.650;9.612;2023-03-04T23:27:41;98994.47;;;6.38;61.37
69796;BME280;57073;45.650;9.612;2023-03-04T23:32:42;98978.97;;;6.47;60.92
69796;BME280;57073;45.650;9.612;2023-03-04T23:37:43;98981.44;;;6.48;61.18
69796;BME280;57073;45.650;9.612;2023-03-04T23:42:44;98976.53;;;6.38;60.86
69796;BME280;57073;45.650;9.612;2023-03-04T23:47:44;98981.47;;;6.42;61.34
69796;BME280;57073;45.650;9.612;2023-03-04T23:52:44;98980.38;;;6.49;60.86
69796;BME280;57073;45.650;9.612;2023-03-04T23:57:45;98981.66;;;6.47;60.97
